SWA1003 KBUR-KSJC
Flight info
| Callsign | SWA1003 |
|---|---|
| Flight time | 0h 47m |
| Altitude | 36000 |
| Route | OROSZ2 COREZ MAKRS TROXX SILCN6 |
| Aircraft | B737/M-SADE2E3GIJ4RWZ/LB1D1 |
Departure
| Time | 2026-05-05 18:29 |
|---|---|
| Airport | Hollywood Burbank/Bob Hope Airport (KBUR) |
Arrival
| Time | 2026-05-05 19:17 |
|---|---|
| Airport | Norman Y. Mineta San Jose International Airport (KSJC) |
| Time | Latitude | Longitude | Altitude | Speed | Heading |
|---|---|---|---|---|---|
| 2026-05-05 18:07 | 34.19679 | -118.35153 | 709 ft | 0 kts | 181° |
| 2026-05-05 18:20 | 34.19697 | -118.35152 | 697 ft | 4 kts | 201° |
| 2026-05-05 18:20 | 34.19715 | -118.35134 | 696 ft | 4 kts | 258° |
| 2026-05-05 18:20 | 34.19716 | -118.35115 | 696 ft | 1 kts | 271° |
| 2026-05-05 18:21 | 34.19716 | -118.35113 | 696 ft | 1 kts | 271° |
| 2026-05-05 18:22 | 34.19716 | -118.35114 | 696 ft | 2 kts | 271° |
| 2026-05-05 18:23 | 34.19718 | -118.35171 | 699 ft | 9 kts | 273° |
| 2026-05-05 18:23 | 34.19718 | -118.35255 | 712 ft | 15 kts | 270° |
| 2026-05-05 18:23 | 34.19720 | -118.35410 | 710 ft | 19 kts | 273° |
| 2026-05-05 18:23 | 34.19773 | -118.35526 | 713 ft | 18 kts | 3° |
| 2026-05-05 18:24 | 34.19894 | -118.35542 | 718 ft | 17 kts | 347° |
| 2026-05-05 18:24 | 34.20022 | -118.35577 | 719 ft | 22 kts | 347° |
| 2026-05-05 18:24 | 34.20189 | -118.35624 | 729 ft | 26 kts | 347° |
| 2026-05-05 18:24 | 34.20359 | -118.35670 | 737 ft | 24 kts | 347° |
| 2026-05-05 18:25 | 34.20527 | -118.35717 | 745 ft | 24 kts | 347° |
| 2026-05-05 18:25 | 34.20633 | -118.35747 | 751 ft | 23 kts | 347° |
| 2026-05-05 18:25 | 34.20837 | -118.35802 | 771 ft | 22 kts | 347° |
| 2026-05-05 18:25 | 34.20997 | -118.35847 | 781 ft | 23 kts | 347° |
| 2026-05-05 18:26 | 34.21126 | -118.35884 | 783 ft | 17 kts | 338° |
| 2026-05-05 18:26 | 34.21160 | -118.35909 | 783 ft | 0 kts | 314° |
| 2026-05-05 18:28 | 34.21195 | -118.35957 | 784 ft | 14 kts | 307° |
| 2026-05-05 18:28 | 34.21156 | -118.36026 | 785 ft | 14 kts | 171° |
| 2026-05-05 18:28 | 34.20926 | -118.35963 | 781 ft | 71 kts | 167° |
| 2026-05-05 18:29 | 34.20167 | -118.35753 | 728 ft | 148 kts | 167° |
| 2026-05-05 18:29 | 34.19027 | -118.35441 | 1080 ft | 174 kts | 168° |
| 2026-05-05 18:29 | 34.17866 | -118.35272 | 2038 ft | 170 kts | 194° |
| 2026-05-05 18:29 | 34.16813 | -118.36013 | 2689 ft | 189 kts | 219° |
| 2026-05-05 18:30 | 34.15746 | -118.37128 | 3307 ft | 206 kts | 224° |
| 2026-05-05 18:30 | 34.14714 | -118.38372 | 3784 ft | 219 kts | 227° |
| 2026-05-05 18:30 | 34.13599 | -118.39810 | 4021 ft | 254 kts | 227° |
| 2026-05-05 18:30 | 34.12346 | -118.41416 | 4008 ft | 264 kts | 226° |
| 2026-05-05 18:31 | 34.11237 | -118.43169 | 3995 ft | 264 kts | 247° |
| 2026-05-05 18:31 | 34.10923 | -118.45289 | 4092 ft | 262 kts | 276° |
| 2026-05-05 18:31 | 34.11540 | -118.47359 | 4832 ft | 261 kts | 304° |
| 2026-05-05 18:31 | 34.12784 | -118.48888 | 6026 ft | 261 kts | 326° |
| 2026-05-05 18:32 | 34.14358 | -118.49992 | 7179 ft | 263 kts | 332° |
| 2026-05-05 18:32 | 34.15990 | -118.51010 | 8277 ft | 266 kts | 333° |
| 2026-05-05 18:32 | 34.17661 | -118.52034 | 9336 ft | 272 kts | 333° |
| 2026-05-05 18:32 | 34.19358 | -118.53083 | 10315 ft | 277 kts | 333° |
| 2026-05-05 18:33 | 34.21140 | -118.54194 | 10795 ft | 302 kts | 332° |
| 2026-05-05 18:33 | 34.23104 | -118.55430 | 11041 ft | 332 kts | 332° |
| 2026-05-05 18:33 | 34.25189 | -118.56751 | 11783 ft | 341 kts | 332° |
| 2026-05-05 18:33 | 34.27272 | -118.58075 | 13095 ft | 332 kts | 332° |
| 2026-05-05 18:34 | 34.29244 | -118.59332 | 14575 ft | 316 kts | 332° |
| 2026-05-05 18:34 | 34.31126 | -118.60533 | 16157 ft | 294 kts | 332° |
| 2026-05-05 18:34 | 34.32871 | -118.61647 | 17742 ft | 275 kts | 332° |
| 2026-05-05 18:34 | 34.34562 | -118.62728 | 18678 ft | 276 kts | 332° |
| 2026-05-05 18:35 | 34.36289 | -118.63833 | 19317 ft | 285 kts | 332° |
| 2026-05-05 18:35 | 34.38027 | -118.64918 | 20021 ft | 288 kts | 334° |
| 2026-05-05 18:35 | 34.39869 | -118.65935 | 20803 ft | 290 kts | 336° |
| 2026-05-05 18:35 | 34.41687 | -118.66910 | 21639 ft | 292 kts | 336° |
| 2026-05-05 18:36 | 34.43548 | -118.67972 | 22297 ft | 298 kts | 332° |
| 2026-05-05 18:36 | 34.45367 | -118.69225 | 23062 ft | 301 kts | 330° |
| 2026-05-05 18:36 | 34.47177 | -118.70532 | 23826 ft | 304 kts | 330° |
| 2026-05-05 18:36 | 34.49004 | -118.71854 | 24460 ft | 307 kts | 330° |
| 2026-05-05 18:37 | 34.50858 | -118.73183 | 25106 ft | 310 kts | 331° |
| 2026-05-05 18:37 | 34.52735 | -118.74518 | 25752 ft | 313 kts | 332° |
| 2026-05-05 18:37 | 34.54620 | -118.75853 | 26159 ft | 325 kts | 332° |
| 2026-05-05 18:37 | 34.56641 | -118.77280 | 26279 ft | 345 kts | 332° |
| 2026-05-05 18:38 | 34.58772 | -118.78787 | 26392 ft | 364 kts | 332° |
| 2026-05-05 18:38 | 34.61011 | -118.80363 | 26545 ft | 380 kts | 333° |
| 2026-05-05 18:38 | 34.63355 | -118.82023 | 26667 ft | 396 kts | 332° |
| 2026-05-05 18:38 | 34.65779 | -118.83745 | 26786 ft | 411 kts | 332° |
| 2026-05-05 18:39 | 34.68293 | -118.85529 | 26961 ft | 423 kts | 332° |
| 2026-05-05 18:39 | 34.70849 | -118.87347 | 27380 ft | 428 kts | 332° |
| 2026-05-05 18:39 | 34.73425 | -118.89183 | 27908 ft | 429 kts | 332° |
| 2026-05-05 18:39 | 34.75977 | -118.91003 | 28371 ft | 433 kts | 332° |
| 2026-05-05 18:40 | 34.78594 | -118.92868 | 28730 ft | 437 kts | 332° |
| 2026-05-05 18:40 | 34.81237 | -118.94752 | 29147 ft | 441 kts | 333° |
| 2026-05-05 18:40 | 34.83888 | -118.96644 | 29650 ft | 441 kts | 333° |
| 2026-05-05 18:40 | 34.86531 | -118.98533 | 30285 ft | 439 kts | 333° |
| 2026-05-05 18:41 | 34.89163 | -119.00414 | 30732 ft | 439 kts | 333° |
| 2026-05-05 18:41 | 34.91815 | -119.02310 | 31082 ft | 442 kts | 333° |
| 2026-05-05 18:41 | 34.94464 | -119.04203 | 31491 ft | 442 kts | 333° |
| 2026-05-05 18:41 | 34.97083 | -119.06076 | 31937 ft | 442 kts | 333° |
| 2026-05-05 18:42 | 34.99738 | -119.07978 | 32315 ft | 443 kts | 333° |
| 2026-05-05 18:42 | 35.02404 | -119.09888 | 32688 ft | 445 kts | 333° |
| 2026-05-05 18:42 | 35.05085 | -119.11810 | 33093 ft | 445 kts | 332° |
| 2026-05-05 18:42 | 35.07748 | -119.13721 | 33501 ft | 445 kts | 332° |
| 2026-05-05 18:43 | 35.10420 | -119.15641 | 33894 ft | 446 kts | 332° |
| 2026-05-05 18:43 | 35.13102 | -119.17569 | 34225 ft | 447 kts | 332° |
| 2026-05-05 18:43 | 35.15774 | -119.19492 | 34569 ft | 446 kts | 332° |
| 2026-05-05 18:43 | 35.18456 | -119.21425 | 34922 ft | 445 kts | 332° |
| 2026-05-05 18:44 | 35.21120 | -119.23344 | 35228 ft | 445 kts | 332° |
| 2026-05-05 18:44 | 35.23786 | -119.25267 | 35526 ft | 445 kts | 332° |
| 2026-05-05 18:44 | 35.26440 | -119.27182 | 35907 ft | 442 kts | 331° |
| 2026-05-05 18:44 | 35.29099 | -119.29102 | 36036 ft | 446 kts | 331° |
| 2026-05-05 18:45 | 35.34520 | -119.33020 | 36052 ft | 457 kts | 332° |
| 2026-05-05 18:45 | 35.40035 | -119.37016 | 36054 ft | 461 kts | 332° |
| 2026-05-05 18:46 | 35.45553 | -119.41021 | 36055 ft | 461 kts | 332° |
| 2026-05-05 18:46 | 35.51057 | -119.45021 | 36057 ft | 461 kts | 331° |
| 2026-05-05 18:47 | 35.53602 | -119.47465 | 36041 ft | 468 kts | 316° |
| 2026-05-05 18:47 | 35.55537 | -119.50710 | 36062 ft | 475 kts | 302° |
| 2026-05-05 18:47 | 35.56782 | -119.54490 | 36041 ft | 483 kts | 286° |
| 2026-05-05 18:47 | 35.57428 | -119.58554 | 36084 ft | 484 kts | 283° |
| 2026-05-05 18:48 | 35.58522 | -119.66684 | 36074 ft | 485 kts | 283° |
| 2026-05-05 18:48 | 35.59650 | -119.74856 | 36060 ft | 484 kts | 283° |
| 2026-05-05 18:49 | 35.60838 | -119.83016 | 36045 ft | 484 kts | 284° |
| 2026-05-05 18:49 | 35.62031 | -119.91098 | 36064 ft | 483 kts | 284° |
| 2026-05-05 18:50 | 35.63225 | -119.99242 | 36060 ft | 483 kts | 284° |
| 2026-05-05 18:50 | 35.64406 | -120.07347 | 36079 ft | 484 kts | 284° |
| 2026-05-05 18:51 | 35.65590 | -120.15521 | 36063 ft | 485 kts | 285° |
| 2026-05-05 18:51 | 35.66770 | -120.23714 | 36071 ft | 486 kts | 284° |
| 2026-05-05 18:52 | 35.68059 | -120.31867 | 36075 ft | 483 kts | 291° |
| 2026-05-05 18:52 | 35.70749 | -120.39311 | 36086 ft | 470 kts | 308° |
| 2026-05-05 18:53 | 35.74340 | -120.45989 | 36096 ft | 471 kts | 309° |
| 2026-05-05 18:53 | 35.77998 | -120.52736 | 36105 ft | 473 kts | 309° |
| 2026-05-05 18:54 | 35.81004 | -120.58381 | 36099 ft | 475 kts | 309° |
| 2026-05-05 18:54 | 35.84610 | -120.65219 | 36098 ft | 476 kts | 308° |
| 2026-05-05 18:55 | 35.88223 | -120.72090 | 35680 ft | 483 kts | 309° |
| 2026-05-05 18:55 | 35.90049 | -120.75569 | 35221 ft | 477 kts | 310° |
| 2026-05-05 18:55 | 35.91814 | -120.78942 | 34645 ft | 469 kts | 310° |
| 2026-05-05 18:56 | 35.93595 | -120.82340 | 33452 ft | 470 kts | 311° |
| 2026-05-05 18:56 | 35.95356 | -120.85704 | 32520 ft | 463 kts | 311° |
| 2026-05-05 18:56 | 35.97089 | -120.89015 | 31746 ft | 453 kts | 311° |
| 2026-05-05 18:56 | 35.98770 | -120.92236 | 31232 ft | 439 kts | 311° |
| 2026-05-05 18:57 | 36.00420 | -120.95344 | 30874 ft | 420 kts | 316° |
| 2026-05-05 18:57 | 36.02401 | -120.97871 | 30385 ft | 408 kts | 331° |
| 2026-05-05 18:57 | 36.04717 | -120.99995 | 29884 ft | 419 kts | 331° |
| 2026-05-05 18:57 | 36.07048 | -121.02132 | 29242 ft | 416 kts | 331° |
| 2026-05-05 18:58 | 36.09342 | -121.04265 | 28665 ft | 410 kts | 330° |
| 2026-05-05 18:58 | 36.11601 | -121.06390 | 28103 ft | 405 kts | 330° |
| 2026-05-05 18:58 | 36.13819 | -121.08493 | 27534 ft | 400 kts | 330° |
| 2026-05-05 18:58 | 36.16020 | -121.10586 | 26959 ft | 395 kts | 329° |
| 2026-05-05 18:59 | 36.18189 | -121.12654 | 26401 ft | 391 kts | 329° |
| 2026-05-05 18:59 | 36.20338 | -121.14704 | 25858 ft | 388 kts | 329° |
| 2026-05-05 18:59 | 36.22437 | -121.16708 | 25316 ft | 384 kts | 329° |
| 2026-05-05 18:59 | 36.24543 | -121.18720 | 24774 ft | 381 kts | 329° |
| 2026-05-05 19:00 | 36.26629 | -121.20714 | 24246 ft | 378 kts | 329° |
| 2026-05-05 19:00 | 36.28706 | -121.22700 | 23705 ft | 375 kts | 328° |
| 2026-05-05 19:00 | 36.30776 | -121.24680 | 23033 ft | 373 kts | 328° |
| 2026-05-05 19:00 | 36.32819 | -121.26635 | 22491 ft | 368 kts | 328° |
| 2026-05-05 19:01 | 36.34834 | -121.28569 | 21931 ft | 364 kts | 327° |
| 2026-05-05 19:01 | 36.36831 | -121.30488 | 21416 ft | 360 kts | 327° |
| 2026-05-05 19:01 | 36.38797 | -121.32382 | 20867 ft | 357 kts | 327° |
| 2026-05-05 19:01 | 36.40731 | -121.34246 | 20348 ft | 353 kts | 327° |
| 2026-05-05 19:02 | 36.42668 | -121.36113 | 19810 ft | 350 kts | 327° |
| 2026-05-05 19:02 | 36.44587 | -121.37964 | 19283 ft | 347 kts | 327° |
| 2026-05-05 19:02 | 36.46489 | -121.39800 | 18761 ft | 344 kts | 326° |
| 2026-05-05 19:02 | 36.48373 | -121.41619 | 18228 ft | 342 kts | 326° |
| 2026-05-05 19:03 | 36.50314 | -121.43278 | 17610 ft | 335 kts | 337° |
| 2026-05-05 19:03 | 36.52467 | -121.44301 | 17080 ft | 328 kts | 344° |
| 2026-05-05 19:03 | 36.54630 | -121.45186 | 16548 ft | 325 kts | 345° |
| 2026-05-05 19:03 | 36.56773 | -121.46050 | 15969 ft | 324 kts | 345° |
| 2026-05-05 19:04 | 36.58886 | -121.46910 | 15443 ft | 321 kts | 345° |
| 2026-05-05 19:04 | 36.61002 | -121.47785 | 14921 ft | 319 kts | 345° |
| 2026-05-05 19:04 | 36.63107 | -121.48664 | 14400 ft | 317 kts | 344° |
| 2026-05-05 19:04 | 36.65179 | -121.49536 | 13884 ft | 314 kts | 345° |
| 2026-05-05 19:05 | 36.67250 | -121.50410 | 13320 ft | 312 kts | 344° |
| 2026-05-05 19:05 | 36.69300 | -121.51277 | 12776 ft | 310 kts | 345° |
| 2026-05-05 19:05 | 36.71308 | -121.52126 | 12282 ft | 308 kts | 344° |
| 2026-05-05 19:05 | 36.73326 | -121.52980 | 11753 ft | 306 kts | 344° |
| 2026-05-05 19:06 | 36.75323 | -121.53829 | 11386 ft | 299 kts | 344° |
| 2026-05-05 19:06 | 36.77294 | -121.54663 | 10935 ft | 301 kts | 344° |
| 2026-05-05 19:06 | 36.79282 | -121.55510 | 10483 ft | 300 kts | 344° |
| 2026-05-05 19:06 | 36.81201 | -121.56327 | 10351 ft | 286 kts | 344° |
| 2026-05-05 19:07 | 36.83052 | -121.57112 | 10221 ft | 275 kts | 345° |
| 2026-05-05 19:07 | 36.84828 | -121.57870 | 10075 ft | 264 kts | 345° |
| 2026-05-05 19:07 | 36.86534 | -121.58597 | 9839 ft | 257 kts | 345° |
| 2026-05-05 19:07 | 36.88213 | -121.59310 | 9527 ft | 253 kts | 345° |
| 2026-05-05 19:08 | 36.89879 | -121.60019 | 9167 ft | 252 kts | 344° |
| 2026-05-05 19:08 | 36.91538 | -121.60725 | 8800 ft | 251 kts | 344° |
| 2026-05-05 19:08 | 36.93185 | -121.61427 | 8463 ft | 250 kts | 345° |
| 2026-05-05 19:08 | 36.94829 | -121.62123 | 8093 ft | 249 kts | 343° |
| 2026-05-05 19:09 | 36.96471 | -121.62818 | 7736 ft | 249 kts | 343° |
| 2026-05-05 19:09 | 36.98090 | -121.63499 | 7413 ft | 248 kts | 343° |
| 2026-05-05 19:09 | 36.99747 | -121.64205 | 7082 ft | 255 kts | 342° |
| 2026-05-05 19:09 | 37.01439 | -121.64926 | 6728 ft | 259 kts | 342° |
| 2026-05-05 19:10 | 37.03152 | -121.65654 | 6360 ft | 259 kts | 342° |
| 2026-05-05 19:10 | 37.04855 | -121.66381 | 5979 ft | 257 kts | 341° |
| 2026-05-05 19:10 | 37.06536 | -121.67100 | 5643 ft | 254 kts | 341° |
| 2026-05-05 19:10 | 37.08207 | -121.67808 | 5318 ft | 251 kts | 341° |
| 2026-05-05 19:11 | 37.09835 | -121.68498 | 5165 ft | 242 kts | 340° |
| 2026-05-05 19:11 | 37.11431 | -121.69177 | 5066 ft | 243 kts | 341° |
| 2026-05-05 19:11 | 37.13040 | -121.69864 | 4961 ft | 244 kts | 340° |
| 2026-05-05 19:11 | 37.14639 | -121.70545 | 4863 ft | 247 kts | 340° |
| 2026-05-05 19:12 | 37.16261 | -121.71286 | 4732 ft | 249 kts | 333° |
| 2026-05-05 19:12 | 37.17711 | -121.72496 | 4512 ft | 252 kts | 320° |
| 2026-05-05 19:12 | 37.19013 | -121.73920 | 4397 ft | 250 kts | 318° |
| 2026-05-05 19:12 | 37.20307 | -121.75380 | 4081 ft | 248 kts | 318° |
| 2026-05-05 19:13 | 37.21588 | -121.76807 | 3767 ft | 245 kts | 318° |
| 2026-05-05 19:13 | 37.22866 | -121.78219 | 3432 ft | 244 kts | 318° |
| 2026-05-05 19:13 | 37.24127 | -121.79608 | 3082 ft | 244 kts | 318° |
| 2026-05-05 19:13 | 37.25420 | -121.81035 | 2783 ft | 245 kts | 318° |
| 2026-05-05 19:14 | 37.26688 | -121.82433 | 2450 ft | 245 kts | 318° |
| 2026-05-05 19:14 | 37.27960 | -121.83836 | 2136 ft | 240 kts | 318° |
| 2026-05-05 19:14 | 37.29188 | -121.85189 | 1791 ft | 227 kts | 318° |
| 2026-05-05 19:14 | 37.30326 | -121.86444 | 1480 ft | 207 kts | 318° |
| 2026-05-05 19:15 | 37.31364 | -121.87588 | 1202 ft | 190 kts | 319° |
| 2026-05-05 19:15 | 37.32311 | -121.88631 | 963 ft | 173 kts | 319° |
| 2026-05-05 19:15 | 37.33179 | -121.89588 | 766 ft | 155 kts | 319° |
| 2026-05-05 19:15 | 37.33951 | -121.90438 | 537 ft | 140 kts | 319° |
| 2026-05-05 19:16 | 37.34663 | -121.91225 | 360 ft | 131 kts | 318° |
| 2026-05-05 19:16 | 37.35367 | -121.91999 | 197 ft | 134 kts | 319° |
| 2026-05-05 19:16 | 37.36045 | -121.92745 | 55 ft | 122 kts | 319° |
| 2026-05-05 19:16 | 37.36523 | -121.93268 | 58 ft | 62 kts | 319° |
| 2026-05-05 19:17 | 37.36761 | -121.93527 | 56 ft | 30 kts | 322° |
| 2026-05-05 19:17 | 37.36910 | -121.93564 | 61 ft | 21 kts | 26° |
| 2026-05-05 19:17 | 37.37012 | -121.93435 | 64 ft | 21 kts | 48° |
| 2026-05-05 19:17 | 37.37075 | -121.93324 | 54 ft | 11 kts | 79° |
| 2026-05-05 19:18 | 37.37036 | -121.93252 | 60 ft | 10 kts | 140° |
| 2026-05-05 19:18 | 37.36983 | -121.93195 | 55 ft | 10 kts | 139° |
| 2026-05-05 19:18 | 37.36931 | -121.93138 | 58 ft | 10 kts | 139° |
| 2026-05-05 19:18 | 37.36879 | -121.93080 | 56 ft | 10 kts | 138° |
| 2026-05-05 19:19 | 37.36815 | -121.93010 | 54 ft | 14 kts | 137° |
| 2026-05-05 19:19 | 37.36733 | -121.92920 | 57 ft | 16 kts | 139° |
| 2026-05-05 19:19 | 37.36651 | -121.92828 | 56 ft | 15 kts | 138° |
| 2026-05-05 19:19 | 37.36640 | -121.92724 | 58 ft | 15 kts | 45° |
| 2026-05-05 19:20 | 37.36656 | -121.92701 | 59 ft | 0 kts | 50° |
| 2026-05-05 19:20 | 37.36646 | -121.92715 | 56 ft | 1 kts | 50° |
| 2026-05-05 19:20 | 37.36652 | -121.92706 | 57 ft | 0 kts | 49° |